Terminal Aerodrome Forecast
Issued by NWS

Home | Current Version | Previous Version | Graphics & Text | Print | Product List | Glossary On
Versions: 1 2 3 4 5 6 7 8 9 10 11 12 13 14 15 16 17
000
FTUS43 KGRB 172048 AAA
TAFCWA
TAF AMD
KCWA 172048Z 1721/1818 34008KT P6SM OVC035
     FM180100 35004KT P6SM SCT040
     FM180600 04004KT P6SM SCT250
     FM181200 06006KT P6SM BKN080
     FM181500 06007KT P6SM -SN OVC019=

USA.gov is the U.S. government's official web portal to all federal, state and local government web resources and services.